PWSweather.com
Personal Weather Stations
Station Observations
N6QIH
Larry & Sandy Wx Now Hawaii, Ewa Beach, HI 96706

Larry & Sandy Wx Now HawaiiEwa Beach, HI 96706

Lat: 21.327716, Lon: -158.028032

Elevation: 29

Station Type: Davis Pro 2 Solar

http://www.CoCoRAHS.org

High Low Average
Temperature 79.2°F26.2°C 60.9°F16.1°C 67.4°F19.7°C
Dew Point 64.1°F17.8°C 56.8°F13.8°C 59.5°F15.3°C
Winds 8.0 mph 12.9 kmh Calm Calm 1.0 mph E1.6 kmh E
Wind Gusts 12.0 mph19.3 kmh -- 3.0 mph4.8 kmh
Humidity 88% 51% 77%
Pressure 29.97 in1014.9 mb 29.86 in1011.2 mb -
Precipitation 0.00 in0.0 mm - -
Hour Temp Dew Point Humidity Winds Wind Gusts Pressure Precip Precip Rate Daily Precip Total
12:00 AM 66.0°F18.9°C 59.3°F15.2°C 79% Calm Calm 1.0 mph1.6 kmh 29.97 in1014.9 mb 0.00 in0.0 mm 0.00 in/hr0.0 mm/hr 0.00 in0.0 mm
12:10 AM 66.0°F18.9°C 59.3°F15.2°C 79% Calm Calm -- 29.97 in1014.9 mb 0.00 in0.0 mm 0.00 in/hr0.0 mm/hr 0.00 in0.0 mm
12:20 AM 65.6°F18.7°C 58.9°F14.9°C 79% Calm Calm -- 29.97 in1014.9 mb 0.00 in0.0 mm 0.00 in/hr0.0 mm/hr 0.00 in0.0 mm
12:30 AM 65.3°F18.5°C 59.0°F15.0°C 80% Calm Calm -- 29.97 in1014.9 mb 0.00 in0.0 mm 0.00 in/hr0.0 mm/hr 0.00 in0.0 mm
12:40 AM 65.0°F18.3°C 58.7°F14.8°C 80% Calm Calm -- 29.96 in1014.6 mb 0.00 in0.0 mm 0.00 in/hr0.0 mm/hr 0.00 in0.0 mm
12:50 AM 64.8°F18.2°C 58.8°F14.9°C 81% Calm Calm -- 29.96 in1014.6 mb 0.00 in0.0 mm 0.00 in/hr0.0 mm/hr 0.00 in0.0 mm
01:00 AM 64.3°F17.9°C 58.3°F14.6°C 81% Calm Calm -- 29.96 in1014.6 mb 0.00 in0.0 mm 0.00 in/hr0.0 mm/hr 0.00 in0.0 mm
01:10 AM 64.2°F17.9°C 58.6°F14.8°C 82% Calm Calm -- 29.95 in1014.2 mb 0.00 in0.0 mm 0.00 in/hr0.0 mm/hr 0.00 in0.0 mm
01:20 AM 64.3°F17.9°C 58.7°F14.8°C 82% Calm Calm -- 29.95 in1014.2 mb 0.00 in0.0 mm 0.00 in/hr0.0 mm/hr 0.00 in0.0 mm
01:30 AM 64.3°F17.9°C 59.0°F15.0°C 83% Calm Calm -- 29.95 in1014.2 mb 0.00 in0.0 mm 0.00 in/hr0.0 mm/hr 0.00 in0.0 mm
01:40 AM 64.1°F17.8°C 58.8°F14.9°C 83% Calm Calm -- 29.95 in1014.2 mb 0.00 in0.0 mm 0.00 in/hr0.0 mm/hr 0.00 in0.0 mm
01:50 AM 63.9°F17.7°C 58.6°F14.8°C 83% Calm Calm -- 29.94 in1013.9 mb 0.00 in0.0 mm 0.00 in/hr0.0 mm/hr 0.00 in0.0 mm
02:00 AM 63.5°F17.5°C 58.2°F14.6°C 83% Calm Calm -- 29.94 in1013.9 mb 0.00 in0.0 mm 0.00 in/hr0.0 mm/hr 0.00 in0.0 mm
02:10 AM 63.5°F17.5°C 58.6°F14.8°C 84% Calm Calm -- 29.94 in1013.9 mb 0.00 in0.0 mm 0.00 in/hr0.0 mm/hr 0.00 in0.0 mm
02:20 AM 63.5°F17.5°C 58.6°F14.8°C 84% Calm Calm -- 29.94 in1013.9 mb 0.00 in0.0 mm 0.00 in/hr0.0 mm/hr 0.00 in0.0 mm
02:30 AM 63.4°F17.4°C 58.5°F14.7°C 84% Calm Calm -- 29.93 in1013.5 mb 0.00 in0.0 mm 0.00 in/hr0.0 mm/hr 0.00 in0.0 mm
02:40 AM 63.1°F17.3°C 57.9°F14.4°C 83% Calm Calm -- 29.93 in1013.5 mb 0.00 in0.0 mm 0.00 in/hr0.0 mm/hr 0.00 in0.0 mm
02:50 AM 62.7°F17.1°C 57.8°F14.3°C 84% Calm Calm -- 29.93 in1013.5 mb 0.00 in0.0 mm 0.00 in/hr0.0 mm/hr 0.00 in0.0 mm
03:00 AM 62.3°F16.8°C 57.4°F14.1°C 84% Calm Calm -- 29.93 in1013.5 mb 0.00 in0.0 mm 0.00 in/hr0.0 mm/hr 0.00 in0.0 mm
03:10 AM 62.0°F16.7°C 57.1°F13.9°C 84% Calm Calm -- 29.92 in1013.2 mb 0.00 in0.0 mm 0.00 in/hr0.0 mm/hr 0.00 in0.0 mm
03:20 AM 61.6°F16.4°C 57.0°F13.9°C 85% Calm Calm -- 29.92 in1013.2 mb 0.00 in0.0 mm 0.00 in/hr0.0 mm/hr 0.00 in0.0 mm
03:30 AM 61.3°F16.3°C 56.8°F13.8°C 85% Calm Calm -- 29.92 in1013.2 mb 0.00 in0.0 mm 0.00 in/hr0.0 mm/hr 0.00 in0.0 mm
03:40 AM 61.3°F16.3°C 57.4°F14.1°C 87% Calm Calm -- 29.91 in1012.9 mb 0.00 in0.0 mm 0.00 in/hr0.0 mm/hr 0.00 in0.0 mm
03:50 AM 61.2°F16.2°C 57.3°F14.1°C 87% Calm Calm -- 29.91 in1012.9 mb 0.00 in0.0 mm 0.00 in/hr0.0 mm/hr 0.00 in0.0 mm
04:00 AM 61.7°F16.5°C 58.1°F14.5°C 88% Calm Calm -- 29.91 in1012.9 mb 0.00 in0.0 mm 0.00 in/hr0.0 mm/hr 0.00 in0.0 mm
04:10 AM 62.0°F16.7°C 58.1°F14.5°C 87% Calm Calm -- 29.91 in1012.9 mb 0.00 in0.0 mm 0.00 in/hr0.0 mm/hr 0.00 in0.0 mm
04:20 AM 61.6°F16.4°C 57.7°F14.3°C 87% 0.1 mph NE0.2 kmh NE 1.0 mph1.6 kmh 29.91 in1012.9 mb 0.00 in0.0 mm 0.00 in/hr0.0 mm/hr 0.00 in0.0 mm
04:30 AM 61.5°F16.4°C 57.6°F14.2°C 87% Calm Calm -- 29.91 in1012.9 mb 0.00 in0.0 mm 0.00 in/hr0.0 mm/hr 0.00 in0.0 mm
04:40 AM 61.2°F16.2°C 57.3°F14.1°C 87% Calm Calm -- 29.91 in1012.9 mb 0.00 in0.0 mm 0.00 in/hr0.0 mm/hr 0.00 in0.0 mm
04:50 AM 60.9°F16.1°C 57.0°F13.9°C 87% Calm Calm -- 29.91 in1012.9 mb 0.00 in0.0 mm 0.00 in/hr0.0 mm/hr 0.00 in0.0 mm
05:00 AM 61.0°F16.1°C 57.1°F13.9°C 87% Calm Calm -- 29.91 in1012.9 mb 0.00 in0.0 mm 0.00 in/hr0.0 mm/hr 0.00 in0.0 mm
05:10 AM 61.0°F16.1°C 57.4°F14.1°C 88% Calm Calm -- 29.91 in1012.9 mb 0.00 in0.0 mm 0.00 in/hr0.0 mm/hr 0.00 in0.0 mm
05:20 AM 61.0°F16.1°C 57.1°F13.9°C 87% Calm Calm -- 29.91 in1012.9 mb 0.00 in0.0 mm 0.00 in/hr0.0 mm/hr 0.00 in0.0 mm
05:30 AM 61.2°F16.2°C 57.3°F14.1°C 87% Calm Calm -- 29.92 in1013.2 mb 0.00 in0.0 mm 0.00 in/hr0.0 mm/hr 0.00 in0.0 mm
05:40 AM 61.5°F16.4°C 57.6°F14.2°C 87% Calm Calm -- 29.92 in1013.2 mb 0.00 in0.0 mm 0.00 in/hr0.0 mm/hr 0.00 in0.0 mm
05:50 AM 61.6°F16.4°C 57.7°F14.3°C 87% 0.1 mph NE0.2 kmh NE 2.0 mph3.2 kmh 29.92 in1013.2 mb 0.00 in0.0 mm 0.00 in/hr0.0 mm/hr 0.00 in0.0 mm
06:00 AM 62.0°F16.7°C 58.1°F14.5°C 87% 0.7 mph NE1.1 kmh NE 2.0 mph3.2 kmh 29.93 in1013.5 mb 0.00 in0.0 mm 0.00 in/hr0.0 mm/hr 0.00 in0.0 mm
06:10 AM 62.0°F16.7°C 57.8°F14.3°C 86% 0.4 mph NE0.6 kmh NE 1.0 mph1.6 kmh 29.93 in1013.5 mb 0.00 in0.0 mm 0.00 in/hr0.0 mm/hr 0.00 in0.0 mm
06:20 AM 62.3°F16.8°C 58.1°F14.5°C 86% 0.3 mph ENE0.5 kmh ENE 2.0 mph3.2 kmh 29.93 in1013.5 mb 0.00 in0.0 mm 0.00 in/hr0.0 mm/hr 0.00 in0.0 mm
06:30 AM 62.3°F16.8°C 57.7°F14.3°C 85% 0.6 mph ENE1.0 kmh ENE 1.0 mph1.6 kmh 29.94 in1013.9 mb 0.00 in0.0 mm 0.00 in/hr0.0 mm/hr 0.00 in0.0 mm
06:40 AM 62.2°F16.8°C 57.6°F14.2°C 85% Calm Calm -- 29.94 in1013.9 mb 0.00 in0.0 mm 0.00 in/hr0.0 mm/hr 0.00 in0.0 mm
06:50 AM 62.1°F16.7°C 57.5°F14.2°C 85% Calm Calm 1.0 mph1.6 kmh 29.94 in1013.9 mb 0.00 in0.0 mm 0.00 in/hr0.0 mm/hr 0.00 in0.0 mm
07:00 AM 62.0°F16.7°C 57.4°F14.1°C 85% Calm Calm 1.0 mph1.6 kmh 29.94 in1013.9 mb 0.00 in0.0 mm 0.00 in/hr0.0 mm/hr 0.00 in0.0 mm
07:10 AM 61.5°F16.4°C 57.3°F14.1°C 86% Calm Calm -- 29.94 in1013.9 mb 0.00 in0.0 mm 0.00 in/hr0.0 mm/hr 0.00 in0.0 mm
07:20 AM 61.3°F16.3°C 57.1°F13.9°C 86% Calm Calm -- 29.94 in1013.9 mb 0.00 in0.0 mm 0.00 in/hr0.0 mm/hr 0.00 in0.0 mm
07:30 AM 61.3°F16.3°C 57.1°F13.9°C 86% Calm Calm -- 29.94 in1013.9 mb 0.00 in0.0 mm 0.00 in/hr0.0 mm/hr 0.00 in0.0 mm
07:40 AM 61.3°F16.3°C 57.1°F13.9°C 86% 0.1 mph ENE0.2 kmh ENE 1.0 mph1.6 kmh 29.94 in1013.9 mb 0.00 in0.0 mm 0.00 in/hr0.0 mm/hr 0.00 in0.0 mm
07:50 AM 61.6°F16.4°C 57.4°F14.1°C 86% Calm Calm -- 29.94 in1013.9 mb 0.00 in0.0 mm 0.00 in/hr0.0 mm/hr 0.00 in0.0 mm
08:00 AM 62.3°F16.8°C 58.1°F14.5°C 86% Calm Calm -- 29.95 in1014.2 mb 0.00 in0.0 mm 0.00 in/hr0.0 mm/hr 0.00 in0.0 mm
08:10 AM 63.2°F17.3°C 58.6°F14.8°C 85% Calm Calm 1.0 mph1.6 kmh 29.95 in1014.2 mb 0.00 in0.0 mm 0.00 in/hr0.0 mm/hr 0.00 in0.0 mm
08:20 AM 64.2°F17.9°C 58.9°F14.9°C 83% 0.3 mph NE0.5 kmh NE 1.0 mph1.6 kmh 29.95 in1014.2 mb 0.00 in0.0 mm 0.00 in/hr0.0 mm/hr 0.00 in0.0 mm
08:30 AM 65.3°F18.5°C 59.7°F15.4°C 82% 0.5 mph NE0.8 kmh NE 2.0 mph3.2 kmh 29.95 in1014.2 mb 0.00 in0.0 mm 0.00 in/hr0.0 mm/hr 0.00 in0.0 mm
08:40 AM 67.0°F19.4°C 60.3°F15.7°C 79% 0.4 mph ENE0.6 kmh ENE 3.0 mph4.8 kmh 29.95 in1014.2 mb 0.00 in0.0 mm 0.00 in/hr0.0 mm/hr 0.00 in0.0 mm
08:50 AM 68.9°F20.5°C 60.6°F15.9°C 75% 1.5 mph ENE2.4 kmh ENE 3.0 mph4.8 kmh 29.95 in1014.2 mb 0.00 in0.0 mm 0.00 in/hr0.0 mm/hr 0.00 in0.0 mm
09:00 AM 70.3°F21.3°C 60.9°F16.1°C 72% 0.3 mph ENE0.5 kmh ENE 2.0 mph3.2 kmh 29.95 in1014.2 mb 0.00 in0.0 mm 0.00 in/hr0.0 mm/hr 0.00 in0.0 mm
09:10 AM 71.6°F22.0°C 61.7°F16.5°C 71% 1.0 mph N1.6 kmh N 3.0 mph4.8 kmh 29.95 in1014.2 mb 0.00 in0.0 mm 0.00 in/hr0.0 mm/hr 0.00 in0.0 mm
09:20 AM 72.7°F22.6°C 61.9°F16.6°C 69% 0.1 mph N0.2 kmh N 1.0 mph1.6 kmh 29.95 in1014.2 mb 0.00 in0.0 mm 0.00 in/hr0.0 mm/hr 0.00 in0.0 mm
09:30 AM 73.7°F23.2°C 62.5°F16.9°C 68% 0.1 mph N0.2 kmh N 2.0 mph3.2 kmh 29.95 in1014.2 mb 0.00 in0.0 mm 0.00 in/hr0.0 mm/hr 0.00 in0.0 mm
09:40 AM 73.9°F23.3°C 61.8°F16.6°C 66% 0.5 mph N0.8 kmh N 1.0 mph1.6 kmh 29.95 in1014.2 mb 0.00 in0.0 mm 0.00 in/hr0.0 mm/hr 0.00 in0.0 mm
09:50 AM 74.5°F23.6°C 62.8°F17.1°C 67% 0.1 mph N0.2 kmh N 1.0 mph1.6 kmh 29.95 in1014.2 mb 0.00 in0.0 mm 0.00 in/hr0.0 mm/hr 0.00 in0.0 mm
10:00 AM 74.7°F23.7°C 63.9°F17.7°C 69% 1.1 mph SSW1.8 kmh SSW 3.0 mph4.8 kmh 29.95 in1014.2 mb 0.00 in0.0 mm 0.00 in/hr0.0 mm/hr 0.00 in0.0 mm
10:10 AM 75.3°F24.1°C 63.2°F17.3°C 66% 1.1 mph SSW1.8 kmh SSW 2.0 mph3.2 kmh 29.95 in1014.2 mb 0.00 in0.0 mm 0.00 in/hr0.0 mm/hr 0.00 in0.0 mm
10:20 AM 75.7°F24.3°C 63.5°F17.5°C 66% 2.8 mph SE4.5 kmh SE 5.0 mph8.0 kmh 29.95 in1014.2 mb 0.00 in0.0 mm 0.00 in/hr0.0 mm/hr 0.00 in0.0 mm
10:30 AM 76.1°F24.5°C 63.4°F17.4°C 65% 4.4 mph S7.1 kmh S 5.0 mph8.0 kmh 29.95 in1014.2 mb 0.00 in0.0 mm 0.00 in/hr0.0 mm/hr 0.00 in0.0 mm
10:40 AM 76.8°F24.9°C 63.2°F17.3°C 63% 4.2 mph SW6.8 kmh SW 7.0 mph11.3 kmh 29.94 in1013.9 mb 0.00 in0.0 mm 0.00 in/hr0.0 mm/hr 0.00 in0.0 mm
10:50 AM 77.0°F25.0°C 63.9°F17.7°C 64% 2.8 mph S4.5 kmh S 5.0 mph8.0 kmh 29.94 in1013.9 mb 0.00 in0.0 mm 0.00 in/hr0.0 mm/hr 0.00 in0.0 mm
11:00 AM 76.9°F24.9°C 63.8°F17.7°C 64% 6.4 mph WSW10.3 kmh WSW 10.0 mph16.1 kmh 29.94 in1013.9 mb 0.00 in0.0 mm 0.00 in/hr0.0 mm/hr 0.00 in0.0 mm
11:10 AM 76.5°F24.7°C 63.4°F17.4°C 64% 3.5 mph SW5.6 kmh SW 7.0 mph11.3 kmh 29.93 in1013.5 mb 0.00 in0.0 mm 0.00 in/hr0.0 mm/hr 0.00 in0.0 mm
11:20 AM 76.3°F24.6°C 62.3°F16.8°C 62% 4.2 mph SW6.8 kmh SW 9.0 mph14.5 kmh 29.93 in1013.5 mb 0.00 in0.0 mm 0.00 in/hr0.0 mm/hr 0.00 in0.0 mm
11:30 AM 76.9°F24.9°C 63.8°F17.7°C 64% 3.3 mph S5.3 kmh S 5.0 mph8.0 kmh 29.92 in1013.2 mb 0.00 in0.0 mm 0.00 in/hr0.0 mm/hr 0.00 in0.0 mm
11:40 AM 76.6°F24.8°C 62.1°F16.7°C 61% 5.1 mph SSW8.2 kmh SSW 11.0 mph17.7 kmh 29.92 in1013.2 mb 0.00 in0.0 mm 0.00 in/hr0.0 mm/hr 0.00 in0.0 mm
11:50 AM 77.2°F25.1°C 64.1°F17.8°C 64% 5.8 mph SSW9.3 kmh SSW 11.0 mph17.7 kmh 29.91 in1012.9 mb 0.00 in0.0 mm 0.00 in/hr0.0 mm/hr 0.00 in0.0 mm
12:00 PM 76.6°F24.8°C 62.2°F16.8°C 61% 7.4 mph SW11.9 kmh SW 12.0 mph19.3 kmh 29.91 in1012.9 mb 0.00 in0.0 mm 0.00 in/hr0.0 mm/hr 0.00 in0.0 mm
12:10 PM 77.0°F25.0°C 63.9°F17.7°C 64% 6.4 mph SW10.3 kmh SW 11.0 mph17.7 kmh 29.91 in1012.9 mb 0.00 in0.0 mm 0.00 in/hr0.0 mm/hr 0.00 in0.0 mm
12:20 PM 77.4°F25.2°C 62.9°F17.2°C 61% 8.0 mph SW12.9 kmh SW 12.0 mph19.3 kmh 29.90 in1012.5 mb 0.00 in0.0 mm 0.00 in/hr0.0 mm/hr 0.00 in0.0 mm
12:30 PM 77.8°F25.4°C 61.9°F16.6°C 58% 5.2 mph SW8.4 kmh SW 10.0 mph16.1 kmh 29.89 in1012.2 mb 0.00 in0.0 mm 0.00 in/hr0.0 mm/hr 0.00 in0.0 mm
12:40 PM 77.8°F25.4°C 62.4°F16.9°C 59% 6.4 mph SW10.3 kmh SW 11.0 mph17.7 kmh 29.89 in1012.2 mb 0.00 in0.0 mm 0.00 in/hr0.0 mm/hr 0.00 in0.0 mm
12:50 PM 78.3°F25.7°C 60.8°F16.0°C 55% 7.1 mph WSW11.4 kmh WSW 10.0 mph16.1 kmh 29.88 in1011.9 mb 0.00 in0.0 mm 0.00 in/hr0.0 mm/hr 0.00 in0.0 mm
01:00 PM 77.7°F25.4°C 59.2°F15.1°C 53% 6.8 mph S10.9 kmh S 11.0 mph17.7 kmh 29.88 in1011.9 mb 0.00 in0.0 mm 0.00 in/hr0.0 mm/hr 0.00 in0.0 mm
01:10 PM 78.6°F25.9°C 58.9°F14.9°C 51% 4.8 mph WSW7.7 kmh WSW 5.0 mph8.0 kmh 29.86 in1011.2 mb 0.00 in0.0 mm 0.00 in/hr0.0 mm/hr 0.00 in0.0 mm
01:20 PM 79.2°F26.2°C 60.1°F15.6°C 52% 5.5 mph SW8.9 kmh SW 10.0 mph16.1 kmh 29.86 in1011.2 mb 0.00 in0.0 mm 0.00 in/hr0.0 mm/hr 0.00 in0.0 mm
01:30 PM 79.2°F26.2°C 59.5°F15.3°C 51% 6.4 mph SSW10.3 kmh SSW 9.0 mph14.5 kmh 29.86 in1011.2 mb 0.00 in0.0 mm 0.00 in/hr0.0 mm/hr 0.00 in0.0 mm
01:40 PM 78.5°F25.8°C 59.4°F15.2°C 52% 7.0 mph SSW11.3 kmh SSW 8.0 mph12.9 kmh 29.85 in1010.8 mb 0.00 in0.0 mm 0.00 in/hr0.0 mm/hr 0.00 in0.0 mm
01:50 PM 79.0°F26.1°C 59.9°F15.5°C 52% 6.1 mph WSW9.8 kmh WSW 9.0 mph14.5 kmh 29.85 in1010.8 mb 0.00 in0.0 mm 0.00 in/hr0.0 mm/hr 0.00 in0.0 mm
02:00 PM 79.0°F26.1°C 57.7°F14.3°C 48% 5.2 mph WNW8.4 kmh WNW 8.0 mph12.9 kmh 29.85 in1010.8 mb 0.00 in0.0 mm 0.00 in/hr0.0 mm/hr 0.00 in0.0 mm
02:10 PM 79.2°F26.2°C 59.0°F15.0°C 50% 5.1 mph WNW8.2 kmh WNW 13.0 mph20.9 kmh 29.85 in1010.8 mb 0.00 in0.0 mm 0.00 in/hr0.0 mm/hr 0.00 in0.0 mm
02:20 PM 78.5°F25.8°C 59.9°F15.5°C 53% 4.6 mph W7.4 kmh W 10.0 mph16.1 kmh 29.85 in1010.8 mb 0.00 in0.0 mm 0.00 in/hr0.0 mm/hr 0.00 in0.0 mm
02:30 PM 78.3°F25.7°C 59.2°F15.1°C 52% 6.6 mph NW10.6 kmh NW 12.0 mph19.3 kmh 29.84 in1010.5 mb 0.00 in0.0 mm 0.00 in/hr0.0 mm/hr 0.00 in0.0 mm
02:40 PM 78.3°F25.7°C 59.8°F15.4°C 53% 5.9 mph WSW9.5 kmh WSW 9.0 mph14.5 kmh 29.83 in1010.2 mb 0.00 in0.0 mm 0.00 in/hr0.0 mm/hr 0.00 in0.0 mm
02:50 PM 78.6°F25.9°C 60.6°F15.9°C 54% 4.9 mph SW7.9 kmh SW 11.0 mph17.7 kmh 29.83 in1010.2 mb 0.00 in0.0 mm 0.00 in/hr0.0 mm/hr 0.00 in0.0 mm
03:00 PM 78.5°F25.8°C 61.5°F16.4°C 56% 5.8 mph NW9.3 kmh NW 9.0 mph14.5 kmh 29.83 in1010.2 mb 0.00 in0.0 mm 0.00 in/hr0.0 mm/hr 0.00 in0.0 mm
03:10 PM 78.3°F25.7°C 59.8°F15.4°C 53% 6.3 mph NW10.1 kmh NW 9.0 mph14.5 kmh 29.83 in1010.2 mb 0.00 in0.0 mm 0.00 in/hr0.0 mm/hr 0.00 in0.0 mm
03:20 PM 78.5°F25.8°C 61.0°F16.1°C 55% 5.6 mph WSW9.0 kmh WSW 7.0 mph11.3 kmh 29.83 in1010.2 mb 0.00 in0.0 mm 0.00 in/hr0.0 mm/hr 0.00 in0.0 mm
03:30 PM 78.1°F25.6°C 60.6°F15.9°C 55% 8.3 mph NW13.4 kmh NW 12.0 mph19.3 kmh 29.83 in1010.2 mb 0.00 in0.0 mm 0.00 in/hr0.0 mm/hr 0.00 in0.0 mm
03:40 PM 77.5°F25.3°C 60.6°F15.9°C 56% 7.1 mph SW11.4 kmh SW 9.0 mph14.5 kmh 29.83 in1010.2 mb 0.00 in0.0 mm 0.00 in/hr0.0 mm/hr 0.00 in0.0 mm
03:50 PM 77.7°F25.4°C 61.7°F16.5°C 58% 5.5 mph NW8.9 kmh NW 15.0 mph24.1 kmh 29.83 in1010.2 mb 0.00 in0.0 mm 0.00 in/hr0.0 mm/hr 0.00 in0.0 mm
04:00 PM 77.7°F25.4°C 62.2°F16.8°C 59% 4.2 mph W6.8 kmh W 6.0 mph9.7 kmh 29.83 in1010.2 mb 0.00 in0.0 mm 0.00 in/hr0.0 mm/hr 0.00 in0.0 mm
04:10 PM 77.4°F25.2°C 61.0°F16.1°C 57% 5.3 mph WNW8.5 kmh WNW 7.0 mph11.3 kmh 29.83 in1010.2 mb 0.00 in0.0 mm 0.00 in/hr0.0 mm/hr 0.00 in0.0 mm
04:20 PM 77.7°F25.4°C 59.7°F15.4°C 54% 7.5 mph NW12.1 kmh NW 12.0 mph19.3 kmh 29.83 in1010.2 mb 0.00 in0.0 mm 0.00 in/hr0.0 mm/hr 0.00 in0.0 mm
04:30 PM 77.2°F25.1°C 60.8°F16.0°C 57% 6.4 mph WNW10.3 kmh WNW 11.0 mph17.7 kmh 29.83 in1010.2 mb 0.00 in0.0 mm 0.00 in/hr0.0 mm/hr 0.00 in0.0 mm
04:40 PM 77.1°F25.1°C 61.2°F16.2°C 58% 5.1 mph W8.2 kmh W 9.0 mph14.5 kmh 29.83 in1010.2 mb 0.00 in0.0 mm 0.00 in/hr0.0 mm/hr 0.00 in0.0 mm
04:50 PM 76.7°F24.8°C 60.8°F16.0°C 58% 6.1 mph WNW9.8 kmh WNW 10.0 mph16.1 kmh 29.83 in1010.2 mb 0.00 in0.0 mm 0.00 in/hr0.0 mm/hr 0.00 in0.0 mm
05:00 PM 76.7°F24.8°C 60.3°F15.7°C 57% 8.2 mph NW13.2 kmh NW 6.0 mph9.7 kmh 29.84 in1010.5 mb 0.00 in0.0 mm 0.00 in/hr0.0 mm/hr 0.00 in0.0 mm
05:10 PM 76.7°F24.8°C 60.3°F15.7°C 57% 8.2 mph NW13.2 kmh NW 6.0 mph9.7 kmh 29.84 in1010.5 mb 0.00 in0.0 mm 0.00 in/hr0.0 mm/hr 0.00 in0.0 mm
05:20 PM 76.7°F24.8°C 60.3°F15.7°C 57% 8.2 mph NW13.2 kmh NW 6.0 mph9.7 kmh 29.84 in1010.5 mb 0.00 in0.0 mm 0.00 in/hr0.0 mm/hr 0.00 in0.0 mm
05:30 PM 76.7°F24.8°C 60.3°F15.7°C 57% 8.2 mph NW13.2 kmh NW 6.0 mph9.7 kmh 29.84 in1010.5 mb 0.00 in0.0 mm 0.00 in/hr0.0 mm/hr 0.00 in0.0 mm
05:40 PM 76.7°F24.8°C 60.3°F15.7°C 57% 8.2 mph NW13.2 kmh NW 6.0 mph9.7 kmh 29.84 in1010.5 mb 0.00 in0.0 mm 0.00 in/hr0.0 mm/hr 0.00 in0.0 mm
05:50 PM 74.4°F23.6°C 61.9°F16.6°C 65% 5.9 mph W9.5 kmh W 10.0 mph16.1 kmh 29.85 in1010.8 mb 0.00 in0.0 mm 0.00 in/hr0.0 mm/hr 0.00 in0.0 mm
06:00 PM 74.2°F23.4°C 61.7°F16.5°C 65% 4.5 mph WNW7.2 kmh WNW 9.0 mph14.5 kmh 29.85 in1010.8 mb 0.00 in0.0 mm 0.00 in/hr0.0 mm/hr 0.00 in0.0 mm
06:10 PM 73.9°F23.3°C 61.8°F16.6°C 66% 4.7 mph W7.6 kmh W 7.0 mph11.3 kmh 29.85 in1010.8 mb 0.00 in0.0 mm 0.00 in/hr0.0 mm/hr 0.00 in0.0 mm
06:20 PM 73.5°F23.1°C 61.4°F16.3°C 66% 4.5 mph NW7.2 kmh NW 6.0 mph9.7 kmh 29.85 in1010.8 mb 0.00 in0.0 mm 0.00 in/hr0.0 mm/hr 0.00 in0.0 mm
06:30 PM 73.3°F22.9°C 61.3°F16.3°C 66% 4.6 mph NW7.4 kmh NW 6.0 mph9.7 kmh 29.85 in1010.8 mb 0.00 in0.0 mm 0.00 in/hr0.0 mm/hr 0.00 in0.0 mm
06:40 PM 73.2°F22.9°C 61.6°F16.4°C 67% 4.4 mph NW7.1 kmh NW 6.0 mph9.7 kmh 29.85 in1010.8 mb 0.00 in0.0 mm 0.00 in/hr0.0 mm/hr 0.00 in0.0 mm
06:50 PM 73.0°F22.8°C 61.4°F16.3°C 67% 3.3 mph NW5.3 kmh NW 8.0 mph12.9 kmh 29.85 in1010.8 mb 0.00 in0.0 mm 0.00 in/hr0.0 mm/hr 0.00 in0.0 mm
07:00 PM 72.8°F22.7°C 61.6°F16.4°C 68% 4.9 mph WNW7.9 kmh WNW 7.0 mph11.3 kmh 29.86 in1011.2 mb 0.00 in0.0 mm 0.00 in/hr0.0 mm/hr 0.00 in0.0 mm
07:10 PM 72.7°F22.6°C 61.9°F16.6°C 69% 4.6 mph NW7.4 kmh NW 9.0 mph14.5 kmh 29.86 in1011.2 mb 0.00 in0.0 mm 0.00 in/hr0.0 mm/hr 0.00 in0.0 mm
07:20 PM 72.5°F22.5°C 61.7°F16.5°C 69% 5.3 mph NW8.5 kmh NW 12.0 mph19.3 kmh 29.86 in1011.2 mb 0.00 in0.0 mm 0.00 in/hr0.0 mm/hr 0.00 in0.0 mm
07:30 PM 72.5°F22.5°C 61.3°F16.3°C 68% 3.5 mph WNW5.6 kmh WNW 5.0 mph8.0 kmh 29.86 in1011.2 mb 0.00 in0.0 mm 0.00 in/hr0.0 mm/hr 0.00 in0.0 mm
07:40 PM 72.3°F22.4°C 61.6°F16.4°C 69% Calm Calm 2.0 mph3.2 kmh 29.86 in1011.2 mb 0.00 in0.0 mm 0.00 in/hr0.0 mm/hr 0.00 in0.0 mm
07:50 PM 71.6°F22.0°C 60.9°F16.1°C 69% 0.1 mph NNW0.2 kmh NNW 6.0 mph9.7 kmh 29.87 in1011.5 mb 0.00 in0.0 mm 0.00 in/hr0.0 mm/hr 0.00 in0.0 mm
08:00 PM 71.8°F22.1°C 60.2°F15.7°C 67% 0.6 mph NNW1.0 kmh NNW 1.0 mph1.6 kmh 29.88 in1011.9 mb 0.00 in0.0 mm 0.00 in/hr0.0 mm/hr 0.00 in0.0 mm
08:10 PM 72.0°F22.2°C 60.0°F15.6°C 66% Calm Calm -- 29.88 in1011.9 mb 0.00 in0.0 mm 0.00 in/hr0.0 mm/hr 0.00 in0.0 mm
08:20 PM 71.6°F22.0°C 60.5°F15.8°C 68% Calm Calm -- 29.88 in1011.9 mb 0.00 in0.0 mm 0.00 in/hr0.0 mm/hr 0.00 in0.0 mm
08:30 PM 71.1°F21.7°C 60.4°F15.8°C 69% Calm Calm -- 29.88 in1011.9 mb 0.00 in0.0 mm 0.00 in/hr0.0 mm/hr 0.00 in0.0 mm
08:40 PM 70.4°F21.3°C 60.1°F15.6°C 70% Calm Calm -- 29.88 in1011.9 mb 0.00 in0.0 mm 0.00 in/hr0.0 mm/hr 0.00 in0.0 mm
08:50 PM 69.6°F20.9°C 60.2°F15.7°C 72% Calm Calm -- 29.88 in1011.9 mb 0.00 in0.0 mm 0.00 in/hr0.0 mm/hr 0.00 in0.0 mm
09:00 PM 69.1°F20.6°C 60.1°F15.6°C 73% Calm Calm -- 29.88 in1011.9 mb 0.00 in0.0 mm 0.00 in/hr0.0 mm/hr 0.00 in0.0 mm
09:10 PM 68.6°F20.3°C 60.0°F15.6°C 74% Calm Calm -- 29.88 in1011.9 mb 0.00 in0.0 mm 0.00 in/hr0.0 mm/hr 0.00 in0.0 mm
09:20 PM 68.0°F20.0°C 60.5°F15.8°C 77% Calm Calm -- 29.88 in1011.9 mb 0.00 in0.0 mm 0.00 in/hr0.0 mm/hr 0.00 in0.0 mm
09:30 PM 67.8°F19.9°C 60.7°F15.9°C 78% Calm Calm -- 29.88 in1011.9 mb 0.00 in0.0 mm 0.00 in/hr0.0 mm/hr 0.00 in0.0 mm
09:40 PM 67.4°F19.7°C 60.7°F15.9°C 79% Calm Calm -- 29.88 in1011.9 mb 0.00 in0.0 mm 0.00 in/hr0.0 mm/hr 0.00 in0.0 mm
09:50 PM 67.1°F19.5°C 60.7°F15.9°C 80% Calm Calm -- 29.88 in1011.9 mb 0.00 in0.0 mm 0.00 in/hr0.0 mm/hr 0.00 in0.0 mm
10:00 PM 66.8°F19.3°C 60.8°F16.0°C 81% Calm Calm -- 29.88 in1011.9 mb 0.00 in0.0 mm 0.00 in/hr0.0 mm/hr 0.00 in0.0 mm
10:10 PM 66.3°F19.1°C 60.3°F15.7°C 81% Calm Calm -- 29.88 in1011.9 mb 0.00 in0.0 mm 0.00 in/hr0.0 mm/hr 0.00 in0.0 mm
10:20 PM 65.8°F18.8°C 60.8°F16.0°C 84% Calm Calm -- 29.87 in1011.5 mb 0.00 in0.0 mm 0.00 in/hr0.0 mm/hr 0.00 in0.0 mm
10:30 PM 65.3°F18.5°C 60.3°F15.7°C 84% 1.3 mph WNW2.1 kmh WNW 3.0 mph4.8 kmh 29.87 in1011.5 mb 0.00 in0.0 mm 0.00 in/hr0.0 mm/hr 0.00 in0.0 mm
10:40 PM 64.7°F18.2°C 60.1°F15.6°C 85% 0.5 mph WNW0.8 kmh WNW -- 29.87 in1011.5 mb 0.00 in0.0 mm 0.00 in/hr0.0 mm/hr 0.00 in0.0 mm
10:50 PM 64.8°F18.2°C 60.5°F15.8°C 86% 0.2 mph NNW0.3 kmh NNW -- 29.87 in1011.5 mb 0.00 in0.0 mm 0.00 in/hr0.0 mm/hr 0.00 in0.0 mm
11:00 PM 65.0°F18.3°C 60.4°F15.8°C 85% Calm Calm -- 29.86 in1011.2 mb 0.00 in0.0 mm 0.00 in/hr0.0 mm/hr 0.00 in0.0 mm
11:10 PM 65.2°F18.4°C 60.2°F15.7°C 84% Calm Calm -- 29.86 in1011.2 mb 0.00 in0.0 mm 0.00 in/hr0.0 mm/hr 0.00 in0.0 mm
11:20 PM 64.7°F18.2°C 60.1°F15.6°C 85% Calm Calm -- 29.86 in1011.2 mb 0.00 in0.0 mm 0.00 in/hr0.0 mm/hr 0.00 in0.0 mm
11:30 PM 64.2°F17.9°C 59.6°F15.3°C 85% Calm Calm -- 29.86 in1011.2 mb 0.00 in0.0 mm 0.00 in/hr0.0 mm/hr 0.00 in0.0 mm
11:40 PM 64.2°F17.9°C 59.9°F15.5°C 86% 0.2 mph NNW0.3 kmh NNW 2.0 mph3.2 kmh 29.86 in1011.2 mb 0.00 in0.0 mm 0.00 in/hr0.0 mm/hr 0.00 in0.0 mm